KAL725 RKSI-RJBB
Flight info
| Callsign | KAL725 |
|---|---|
| Flight time | N/A |
| Altitude | 37000 |
| Route | EGOBA2C EGOBA DCT LANAT Y597 MIHOU DCT SAEKI Y36 ATMUG ATMUGC |
| Aircraft | B738/M-SDE2E3FGHIRWXY/LB1 |
Departure
| Time | 2026-05-05 08:53 |
|---|---|
| Airport | Incheon International Airport (RKSI) |
Arrival
| Time | N/A |
|---|---|
| Airport | Kansai International Airport (RJBB) |
| Time | Latitude | Longitude | Altitude | Speed | Heading |
|---|---|---|---|---|---|
| 2026-05-05 08:33 | 37.47490 | 126.43451 | 31 ft | 0 kts | 226° |
| 2026-05-05 08:45 | 37.47501 | 126.43465 | 32 ft | 4 kts | 229° |
| 2026-05-05 08:45 | 37.47518 | 126.43492 | 30 ft | 4 kts | 237° |
| 2026-05-05 08:45 | 37.47530 | 126.43521 | 30 ft | 4 kts | 257° |
| 2026-05-05 08:46 | 37.47529 | 126.43550 | 29 ft | 4 kts | 315° |
| 2026-05-05 08:46 | 37.47522 | 126.43557 | 32 ft | 0 kts | 326° |
| 2026-05-05 08:49 | 37.47537 | 126.43544 | 30 ft | 7 kts | 325° |
| 2026-05-05 08:49 | 37.47611 | 126.43496 | 31 ft | 13 kts | 8° |
| 2026-05-05 08:49 | 37.47673 | 126.43581 | 32 ft | 13 kts | 54° |
| 2026-05-05 08:50 | 37.47749 | 126.43600 | 32 ft | 13 kts | 323° |
| 2026-05-05 08:50 | 37.47821 | 126.43535 | 30 ft | 13 kts | 324° |
| 2026-05-05 08:50 | 37.47895 | 126.43468 | 31 ft | 14 kts | 324° |
| 2026-05-05 08:50 | 37.47986 | 126.43391 | 32 ft | 17 kts | 341° |
| 2026-05-05 08:51 | 37.48053 | 126.43448 | 32 ft | 11 kts | 54° |
| 2026-05-05 08:51 | 37.48096 | 126.43525 | 32 ft | 11 kts | 54° |
| 2026-05-05 08:51 | 37.48139 | 126.43601 | 32 ft | 10 kts | 54° |
| 2026-05-05 08:51 | 37.48132 | 126.43676 | 32 ft | 10 kts | 143° |
| 2026-05-05 08:52 | 37.48120 | 126.43686 | 32 ft | 0 kts | 145° |
| 2026-05-05 08:52 | 37.48120 | 126.43687 | 32 ft | 0 kts | 145° |
| 2026-05-05 08:52 | 37.48088 | 126.43714 | 32 ft | 20 kts | 146° |
| 2026-05-05 08:52 | 37.47789 | 126.43981 | 32 ft | 85 kts | 145° |
| 2026-05-05 08:53 | 37.47073 | 126.44299 | 48 ft | 130 kts | 172° |
| 2026-05-05 08:53 | 37.46164 | 126.44751 | 233 ft | 159 kts | 151° |
| 2026-05-05 08:53 | 37.45295 | 126.45839 | 432 ft | 189 kts | 130° |
| 2026-05-05 08:53 | 37.44499 | 126.47047 | 749 ft | 175 kts | 188° |
| 2026-05-05 08:54 | 37.44023 | 126.46204 | 34 ft | 34 kts | 16° |
| 2026-05-05 08:54 | 37.44188 | 126.45902 | 30 ft | 57 kts | 288° |
| 2026-05-05 08:54 | 37.44247 | 126.45643 | 31 ft | 0 kts | 278° |